createdAt,value
2023-02-02T00:01:26.135Z,4.30
2023-02-02T00:03:53.913Z,4.30
2023-02-02T00:06:22.571Z,4.30
2023-02-02T00:08:49.994Z,4.20
2023-02-02T00:11:18.517Z,4.30
2023-02-02T00:13:45.909Z,4.30
2023-02-02T00:16:31.228Z,4.20
2023-02-02T00:19:01.251Z,4.20
2023-02-02T00:21:29.123Z,4.10
2023-02-02T00:23:56.376Z,4.20
2023-02-02T00:26:23.918Z,4.10
2023-02-02T00:28:51.328Z,4.10
2023-02-02T00:31:18.717Z,4.20
2023-02-02T00:33:47.489Z,4.10
2023-02-02T00:36:15.537Z,4.10
2023-02-02T00:38:43.000Z,4.10
2023-02-02T00:41:10.163Z,4.20
2023-02-02T00:43:37.306Z,4.20
2023-02-02T00:46:05.711Z,4.20
2023-02-02T00:48:32.960Z,4.10
2023-02-02T00:51:02.193Z,4.10
2023-02-02T00:53:29.673Z,4.10
2023-02-02T00:55:56.831Z,4.10
2023-02-02T00:58:24.070Z,4.10
2023-02-02T01:00:52.175Z,4.10
2023-02-02T01:03:19.483Z,4.10
2023-02-02T01:05:46.655Z,4.00
2023-02-02T01:08:13.858Z,4.00
2023-02-02T01:10:41.034Z,3.90
2023-02-02T01:13:08.243Z,3.90
2023-02-02T01:15:36.555Z,3.90
2023-02-02T01:18:04.896Z,3.80
2023-02-02T01:20:32.294Z,3.70
2023-02-02T01:22:59.509Z,3.70
2023-02-02T01:25:27.457Z,3.60
2023-02-02T01:27:55.550Z,3.60
2023-02-02T01:30:22.770Z,3.60
2023-02-02T01:32:50.243Z,3.60
2023-02-02T01:35:17.388Z,3.60
2023-02-02T01:37:44.668Z,3.70
2023-02-02T01:40:12.561Z,3.70
2023-02-02T01:42:39.792Z,3.70
2023-02-02T01:45:42.502Z,3.80
2023-02-02T01:48:11.300Z,3.70
2023-02-02T01:50:38.681Z,3.80
2023-02-02T01:53:06.904Z,3.80
2023-02-02T01:55:37.164Z,3.80
2023-02-02T01:58:28.817Z,3.80
2023-02-02T02:00:56.323Z,3.80
2023-02-02T02:03:26.300Z,3.80
2023-02-02T02:06:00.318Z,3.80
2023-02-02T02:08:31.239Z,3.90
2023-02-02T02:10:59.260Z,3.90
2023-02-02T02:13:47.570Z,3.90
2023-02-02T02:16:38.136Z,3.90
2023-02-02T02:19:20.193Z,3.90
2023-02-02T02:22:14.654Z,3.90
2023-02-02T02:25:31.361Z,3.90
2023-02-02T02:28:04.749Z,4.00
2023-02-02T02:30:49.363Z,3.90
2023-02-02T02:33:29.879Z,4.00
2023-02-02T02:36:12.059Z,4.00
2023-02-02T02:38:47.871Z,3.90
2023-02-02T02:41:27.375Z,3.90
2023-02-02T02:44:00.126Z,3.90
2023-02-02T02:46:28.318Z,3.90
2023-02-02T02:49:01.862Z,4.00
2023-02-02T02:51:51.581Z,4.00
2023-02-02T02:54:33.009Z,4.00
2023-02-02T02:57:42.606Z,4.00
2023-02-02T03:01:03.399Z,3.90
2023-02-02T03:03:59.285Z,4.00
2023-02-02T03:06:45.093Z,4.00
2023-02-02T03:09:16.738Z,4.00
2023-02-02T03:11:44.150Z,4.00
2023-02-02T03:14:11.460Z,4.00
2023-02-02T03:16:38.849Z,4.00
2023-02-02T03:19:07.320Z,4.00
2023-02-02T03:21:34.776Z,4.00
2023-02-02T03:24:01.943Z,4.00
2023-02-02T03:26:29.414Z,4.00
2023-02-02T03:28:57.522Z,3.90
2023-02-02T03:31:27.403Z,3.90
2023-02-02T03:33:55.656Z,3.80
2023-02-02T03:36:23.351Z,3.80
2023-02-02T03:38:50.525Z,3.80
2023-02-02T03:41:17.752Z,3.70
2023-02-02T03:43:45.062Z,3.70
2023-02-02T03:46:12.581Z,3.70
2023-02-02T03:48:40.055Z,3.70
2023-02-02T03:51:12.756Z,3.60
2023-02-02T03:53:44.227Z,3.60
2023-02-02T03:56:11.445Z,3.60
2023-02-02T03:58:38.595Z,3.60
2023-02-02T04:01:07.965Z,3.60
2023-02-02T04:03:35.183Z,3.60
2023-02-02T04:06:02.436Z,3.70
2023-02-02T04:08:30.111Z,3.70
2023-02-02T04:10:57.839Z,3.80
2023-02-02T04:13:24.997Z,3.80
2023-02-02T04:15:59.528Z,3.80
2023-02-02T04:18:27.131Z,3.80
2023-02-02T04:21:01.770Z,3.90
2023-02-02T04:23:29.718Z,3.90
2023-02-02T04:25:57.760Z,3.90
2023-02-02T04:28:26.230Z,3.90
2023-02-02T04:30:54.840Z,3.90
2023-02-02T04:33:23.929Z,3.90
2023-02-02T04:35:51.268Z,3.90
2023-02-02T04:38:18.653Z,4.00
2023-02-02T04:40:47.567Z,4.00
2023-02-02T04:43:15.101Z,4.00
2023-02-02T04:45:42.488Z,3.90
2023-02-02T04:48:09.925Z,3.90
2023-02-02T04:50:37.141Z,3.90
2023-02-02T04:53:04.751Z,3.90
2023-02-02T04:55:36.681Z,3.90
2023-02-02T04:58:04.870Z,3.90
2023-02-02T05:00:32.101Z,3.90
2023-02-02T05:03:00.160Z,4.00
2023-02-02T05:05:27.518Z,4.00
2023-02-02T05:07:54.751Z,4.00
2023-02-02T05:10:21.959Z,4.00
2023-02-02T05:12:49.110Z,4.10
2023-02-02T05:15:16.353Z,4.10
2023-02-02T05:17:43.489Z,4.10
2023-02-02T05:20:11.478Z,4.10
2023-02-02T05:22:38.741Z,4.10
2023-02-02T05:25:07.645Z,4.10
2023-02-02T05:27:35.035Z,4.10
2023-02-02T05:30:02.231Z,4.10
2023-02-02T05:32:29.805Z,4.10
2023-02-02T05:34:57.021Z,4.10
2023-02-02T05:37:24.205Z,4.10
2023-02-02T05:39:53.615Z,4.10
2023-02-02T05:42:21.080Z,4.00
2023-02-02T05:44:48.273Z,4.00
2023-02-02T05:47:15.521Z,4.00
2023-02-02T05:49:42.769Z,3.90
2023-02-02T05:52:15.433Z,3.90
2023-02-02T05:54:42.586Z,4.00
2023-02-02T05:57:09.796Z,3.90
2023-02-02T05:59:36.985Z,3.90
2023-02-02T06:02:04.227Z,3.90
2023-02-02T06:04:31.462Z,3.90
2023-02-02T06:06:58.634Z,3.90
2023-02-02T06:09:25.983Z,3.80
2023-02-02T06:11:53.158Z,4.00
2023-02-02T06:14:20.398Z,3.90
2023-02-02T06:16:47.577Z,4.00
2023-02-02T06:19:14.781Z,4.00
2023-02-02T06:21:41.964Z,4.00
2023-02-02T06:24:09.236Z,4.10
2023-02-02T06:26:36.698Z,4.00
2023-02-02T06:29:04.198Z,3.90
2023-02-02T06:31:31.517Z,3.90
2023-02-02T06:33:59.476Z,4.00
2023-02-02T06:36:27.659Z,4.00
2023-02-02T06:38:56.298Z,4.00
2023-02-02T06:41:24.079Z,4.10
2023-02-02T06:43:52.786Z,4.00
2023-02-02T06:46:20.023Z,4.00
2023-02-02T06:48:47.245Z,4.10
2023-02-02T06:51:14.716Z,4.10
2023-02-02T06:53:41.891Z,4.10
2023-02-02T06:56:12.704Z,4.10
2023-02-02T06:58:39.888Z,4.10
2023-02-02T07:01:12.558Z,4.10
2023-02-02T07:03:40.695Z,4.10
2023-02-02T07:06:22.632Z,4.10
2023-02-02T07:09:01.216Z,4.10
2023-02-02T07:11:31.308Z,4.20
2023-02-02T07:13:58.630Z,4.20
2023-02-02T07:16:25.767Z,4.20
2023-02-02T07:18:53.025Z,4.20
2023-02-02T07:21:22.974Z,4.10
2023-02-02T07:23:50.462Z,4.20
2023-02-02T07:26:19.430Z,4.20
2023-02-02T07:28:46.970Z,4.20
2023-02-02T07:31:22.999Z,4.20
2023-02-02T07:33:50.876Z,4.20
2023-02-02T07:36:19.832Z,4.20
2023-02-02T07:38:48.620Z,4.30
2023-02-02T07:41:16.117Z,4.30
2023-02-02T07:43:46.094Z,4.30
2023-02-02T07:46:14.303Z,4.30
2023-02-02T07:48:41.750Z,4.40
2023-02-02T07:51:12.919Z,4.30
2023-02-02T07:53:46.976Z,4.30
2023-02-02T07:56:15.426Z,4.30
2023-02-02T07:58:43.711Z,4.40
2023-02-02T08:01:13.167Z,4.40
2023-02-02T08:03:41.462Z,4.30
2023-02-02T08:06:22.375Z,4.30
2023-02-02T08:08:50.584Z,4.30
2023-02-02T08:11:19.662Z,4.30
2023-02-02T08:13:49.945Z,4.20
2023-02-02T08:16:17.680Z,4.20
2023-02-02T08:18:45.424Z,4.20
2023-02-02T08:21:13.228Z,4.20
2023-02-02T08:23:42.199Z,4.20
2023-02-02T08:26:26.106Z,4.10
2023-02-02T08:29:06.889Z,4.20
2023-02-02T08:31:37.027Z,4.20
2023-02-02T08:34:04.956Z,4.20
2023-02-02T08:36:35.268Z,4.20
2023-02-02T08:39:05.613Z,4.20
2023-02-02T08:41:33.366Z,4.30
2023-02-02T08:44:00.733Z,4.20
2023-02-02T08:46:28.127Z,4.30
2023-02-02T08:48:55.348Z,4.40
2023-02-02T08:51:22.511Z,4.40
2023-02-02T08:53:49.765Z,4.30
2023-02-02T08:56:19.678Z,4.30
2023-02-02T08:58:50.633Z,4.20
2023-02-02T09:01:23.719Z,4.10
2023-02-02T09:04:00.382Z,4.10
2023-02-02T09:06:38.823Z,4.10
2023-02-02T09:09:08.016Z,4.10
2023-02-02T09:11:35.866Z,4.10
2023-02-02T09:14:03.636Z,4.10
2023-02-02T09:16:30.901Z,4.10
2023-02-02T09:18:58.303Z,4.10
2023-02-02T09:21:26.050Z,4.20
2023-02-02T09:23:54.355Z,4.30
2023-02-02T09:26:25.168Z,4.30
2023-02-02T09:28:55.027Z,4.40
2023-02-02T09:31:22.893Z,4.30
2023-02-02T09:33:50.311Z,4.20
2023-02-02T09:36:22.505Z,4.20
2023-02-02T09:38:51.194Z,4.30
2023-02-02T09:41:40.340Z,4.30
2023-02-02T09:44:37.245Z,4.20
2023-02-02T09:47:18.778Z,4.30
2023-02-02T09:50:11.481Z,4.40
2023-02-02T09:53:10.834Z,4.30
2023-02-02T09:55:44.989Z,4.40
2023-02-02T09:58:17.894Z,4.40
2023-02-02T10:00:59.345Z,4.50
2023-02-02T10:03:37.657Z,4.40
2023-02-02T10:06:23.605Z,4.40
2023-02-02T10:08:55.944Z,4.50
2023-02-02T10:11:39.376Z,4.50
2023-02-02T10:14:17.839Z,4.50
2023-02-02T10:16:48.569Z,4.60
2023-02-02T10:19:16.160Z,4.70
2023-02-02T10:22:05.130Z,4.70
2023-02-02T10:24:35.311Z,4.70
2023-02-02T10:27:06.997Z,4.90
2023-02-02T10:30:01.747Z,4.80
2023-02-02T10:32:38.492Z,4.80
2023-02-02T10:35:38.798Z,4.80
2023-02-02T10:38:12.208Z,4.80
2023-02-02T10:40:42.301Z,4.80
2023-02-02T10:43:44.776Z,4.80
2023-02-02T10:46:38.318Z,4.80
2023-02-02T10:49:26.266Z,4.80
2023-02-02T10:52:18.026Z,4.80
2023-02-02T10:54:59.131Z,4.80
2023-02-02T10:57:32.835Z,4.80
2023-02-02T11:00:25.542Z,4.80
2023-02-02T11:02:53.831Z,4.80
2023-02-02T11:05:42.714Z,4.70
2023-02-02T11:08:19.775Z,4.70
2023-02-02T11:10:51.857Z,4.70
2023-02-02T11:13:37.037Z,4.80
2023-02-02T11:16:16.668Z,4.90
2023-02-02T11:18:44.962Z,4.90
2023-02-02T11:21:30.237Z,4.90
2023-02-02T11:24:27.919Z,4.90
2023-02-02T11:26:59.440Z,4.90
2023-02-02T11:29:40.912Z,5.00
2023-02-02T11:32:27.279Z,5.10
2023-02-02T11:35:20.959Z,5.10
2023-02-02T11:37:55.903Z,5.10
2023-02-02T11:40:27.289Z,5.10
2023-02-02T11:43:07.137Z,5.10
2023-02-02T11:45:39.055Z,5.10
2023-02-02T11:48:13.037Z,5.00
2023-02-02T11:50:49.803Z,5.00
2023-02-02T11:53:24.983Z,5.10
2023-02-02T11:55:53.668Z,5.20
2023-02-02T11:58:28.261Z,5.10
2023-02-02T12:01:01.630Z,5.20
2023-02-02T12:03:38.223Z,5.30
2023-02-02T12:06:22.296Z,5.30
2023-02-02T12:08:50.034Z,5.40
2023-02-02T12:11:57.872Z,5.40
2023-02-02T12:14:35.193Z,5.20
2023-02-02T12:17:38.878Z,5.30
2023-02-02T12:20:15.448Z,5.20
2023-02-02T12:22:56.410Z,5.20
2023-02-02T12:25:36.392Z,5.20
2023-02-02T12:28:22.479Z,5.20
2023-02-02T12:30:57.178Z,5.20
2023-02-02T12:33:46.238Z,5.10
2023-02-02T12:36:35.013Z,5.10
2023-02-02T12:39:34.396Z,5.00
2023-02-02T12:42:25.360Z,4.90
2023-02-02T12:44:58.842Z,4.80
2023-02-02T12:47:43.081Z,4.90
2023-02-02T12:50:24.562Z,4.90
2023-02-02T12:53:00.947Z,4.90
2023-02-02T12:55:48.895Z,4.80
2023-02-02T12:58:55.898Z,4.90
2023-02-02T13:01:32.937Z,4.80
2023-02-02T13:04:23.419Z,4.80
2023-02-02T13:07:17.865Z,4.80
2023-02-02T13:09:50.362Z,4.80
2023-02-02T13:12:22.028Z,4.70
2023-02-02T13:15:00.709Z,4.70
2023-02-02T13:17:40.057Z,4.50
2023-02-02T13:20:23.835Z,4.50
2023-02-02T13:22:56.661Z,4.40
2023-02-02T13:25:35.749Z,4.30
2023-02-02T13:28:06.979Z,4.40
2023-02-02T13:30:40.420Z,4.30
2023-02-02T13:33:16.509Z,4.40
2023-02-02T13:35:59.008Z,4.30
2023-02-02T13:38:30.357Z,4.40
2023-02-02T13:41:00.833Z,4.20
2023-02-02T13:43:40.108Z,4.30
2023-02-02T13:46:10.165Z,4.30
2023-02-02T13:48:52.924Z,4.10
2023-02-02T13:51:46.586Z,4.20
2023-02-02T13:54:31.840Z,4.10
2023-02-02T13:57:20.654Z,4.00
2023-02-02T13:59:53.574Z,4.00
2023-02-02T14:02:40.345Z,4.00
2023-02-02T14:05:19.817Z,4.00
2023-02-02T14:07:48.129Z,3.80
2023-02-02T14:10:25.100Z,3.90
2023-02-02T14:12:53.560Z,3.90
2023-02-02T14:15:40.931Z,4.00
2023-02-02T14:18:08.225Z,3.90
2023-02-02T14:20:44.757Z,3.90
2023-02-02T14:23:52.966Z,3.90
2023-02-02T14:26:49.148Z,3.90
2023-02-02T14:29:31.660Z,3.90
2023-02-02T14:32:23.616Z,3.80
2023-02-02T14:34:53.609Z,3.80
2023-02-02T14:37:26.852Z,3.90
2023-02-02T14:40:06.317Z,3.90
2023-02-02T14:43:24.288Z,3.90
2023-02-02T14:46:13.225Z,3.90
2023-02-02T14:48:47.929Z,3.90
2023-02-02T14:51:21.879Z,3.80
2023-02-02T14:53:52.716Z,3.80
2023-02-02T14:56:21.921Z,3.80
2023-02-02T14:58:52.164Z,3.70
2023-02-02T15:01:23.481Z,3.80
2023-02-02T15:04:14.235Z,3.90
2023-02-02T15:06:42.959Z,3.90
2023-02-02T15:09:23.194Z,3.90
2023-02-02T15:12:01.001Z,3.80
2023-02-02T15:14:43.667Z,3.90
2023-02-02T15:17:26.165Z,3.90
2023-02-02T15:20:05.050Z,3.90
2023-02-02T15:22:41.515Z,3.90
2023-02-02T15:25:38.801Z,3.90
2023-02-02T15:28:29.341Z,3.90
2023-02-02T15:31:35.239Z,3.90
2023-02-02T15:34:25.730Z,3.90
2023-02-02T15:36:57.365Z,3.90
2023-02-02T15:39:31.839Z,3.90
2023-02-02T15:42:21.183Z,3.90
2023-02-02T15:44:48.400Z,3.80
2023-02-02T15:47:19.640Z,3.90
2023-02-02T15:49:47.532Z,3.80
2023-02-02T15:52:18.797Z,3.90
2023-02-02T15:54:54.467Z,3.80
2023-02-02T15:57:35.464Z,3.80
2023-02-02T16:00:27.787Z,3.90
2023-02-02T16:03:14.755Z,3.90
2023-02-02T16:05:51.808Z,3.90
2023-02-02T16:08:26.052Z,3.90
2023-02-02T16:11:09.952Z,3.90
2023-02-02T16:13:40.169Z,3.90
2023-02-02T16:16:31.272Z,3.90
2023-02-02T16:19:21.983Z,3.80
2023-02-02T16:21:58.882Z,3.90
2023-02-02T16:24:31.824Z,3.90
2023-02-02T16:27:02.114Z,3.90
2023-02-02T16:29:29.703Z,3.90
2023-02-02T16:31:58.186Z,4.00
2023-02-02T16:34:46.819Z,3.90
2023-02-02T16:37:31.920Z,3.90
2023-02-02T16:40:25.935Z,4.00
2023-02-02T16:43:20.822Z,4.00
2023-02-02T16:45:55.410Z,4.00
2023-02-02T16:48:36.589Z,4.10
2023-02-02T16:51:09.872Z,4.10
2023-02-02T16:53:37.495Z,4.10
2023-02-02T16:56:06.425Z,4.10
2023-02-02T16:58:40.072Z,4.10
2023-02-02T17:01:15.999Z,4.00
2023-02-02T17:03:53.063Z,4.10
2023-02-02T17:06:35.807Z,4.10
2023-02-02T17:09:24.922Z,4.00
2023-02-02T17:12:31.626Z,4.10
2023-02-02T17:15:04.790Z,4.20
2023-02-02T17:17:32.001Z,4.20
2023-02-02T17:19:59.137Z,4.10
2023-02-02T17:22:27.706Z,4.10
2023-02-02T17:24:55.015Z,4.10
2023-02-02T17:27:33.849Z,4.20
2023-02-02T17:30:03.083Z,4.20
2023-02-02T17:32:30.479Z,4.20
2023-02-02T17:34:57.692Z,4.10
2023-02-02T17:37:24.825Z,4.20
2023-02-02T17:39:52.076Z,4.20
2023-02-02T17:42:27.603Z,4.30
2023-02-02T17:44:54.807Z,4.30
2023-02-02T17:47:21.962Z,4.20
2023-02-02T17:49:49.198Z,4.20
2023-02-02T17:52:16.648Z,4.30
2023-02-02T17:54:43.804Z,4.20
2023-02-02T17:57:11.026Z,4.20
2023-02-02T17:59:38.186Z,4.20
2023-02-02T18:02:05.353Z,4.20
2023-02-02T18:04:32.549Z,4.20
2023-02-02T18:06:59.742Z,4.20
2023-02-02T18:09:27.354Z,4.20
2023-02-02T18:11:54.535Z,4.30
2023-02-02T18:14:21.754Z,4.30
2023-02-02T18:16:48.919Z,4.40
2023-02-02T18:19:16.104Z,4.40
2023-02-02T18:21:43.343Z,4.30
2023-02-02T18:24:15.365Z,4.40
2023-02-02T18:26:42.585Z,4.40
2023-02-02T18:29:09.827Z,4.30
2023-02-02T18:31:37.024Z,4.40
2023-02-02T18:34:04.294Z,4.30
2023-02-02T18:36:31.580Z,4.30
2023-02-02T18:38:58.821Z,4.40
2023-02-02T18:41:26.044Z,4.30
2023-02-02T18:43:56.268Z,4.20
2023-02-02T18:46:23.566Z,4.20
2023-02-02T18:48:50.733Z,4.20
2023-02-02T18:51:19.038Z,4.10
2023-02-02T18:53:47.474Z,4.00
2023-02-02T18:56:15.501Z,4.00
2023-02-02T18:58:42.725Z,4.00
2023-02-02T19:01:12.165Z,4.00
2023-02-02T19:03:40.763Z,4.00
2023-02-02T19:06:28.011Z,4.00
2023-02-02T19:08:55.338Z,3.80
2023-02-02T19:11:24.433Z,3.80
2023-02-02T19:13:51.668Z,3.80
2023-02-02T19:16:31.210Z,3.80
2023-02-02T19:19:05.743Z,3.80
2023-02-02T19:21:32.929Z,3.80
2023-02-02T19:24:01.033Z,3.80
2023-02-02T19:26:29.372Z,3.80
2023-02-02T19:29:05.609Z,3.70
2023-02-02T19:31:32.863Z,3.80
2023-02-02T19:34:01.106Z,3.80
2023-02-02T19:36:30.752Z,3.80
2023-02-02T19:39:04.801Z,3.80
2023-02-02T19:41:32.303Z,3.70
2023-02-02T19:44:06.082Z,3.80
2023-02-02T19:46:39.602Z,3.80
2023-02-02T19:49:34.048Z,3.80
2023-02-02T19:52:05.920Z,3.80
2023-02-02T19:54:38.292Z,3.80
2023-02-02T19:57:21.017Z,3.90
2023-02-02T19:59:50.826Z,3.90
2023-02-02T20:02:45.723Z,4.00
2023-02-02T20:05:20.479Z,3.90
2023-02-02T20:08:25.798Z,3.90
2023-02-02T20:10:54.940Z,3.90
2023-02-02T20:13:35.308Z,3.90
2023-02-02T20:16:04.766Z,3.90
2023-02-02T20:18:45.450Z,3.80
2023-02-02T20:21:31.471Z,3.80
2023-02-02T20:23:58.826Z,3.90
2023-02-02T20:26:37.422Z,3.80
2023-02-02T20:29:36.433Z,3.90
2023-02-02T20:32:05.591Z,3.90
2023-02-02T20:34:41.057Z,3.90
2023-02-02T20:37:22.718Z,3.90
2023-02-02T20:39:55.043Z,3.90
2023-02-02T20:42:22.299Z,3.90
2023-02-02T20:44:50.242Z,3.90
2023-02-02T20:47:17.566Z,3.90
2023-02-02T20:49:45.447Z,3.90
2023-02-02T20:52:21.400Z,3.90
2023-02-02T20:54:48.938Z,3.90
2023-02-02T20:57:17.039Z,3.90
2023-02-02T20:59:44.330Z,3.90
2023-02-02T21:02:19.645Z,4.00
2023-02-02T21:04:47.974Z,4.00
2023-02-02T21:07:17.010Z,4.00
2023-02-02T21:09:45.607Z,4.10
2023-02-02T21:12:13.381Z,4.00
2023-02-02T21:14:40.731Z,4.10
2023-02-02T21:17:14.747Z,4.00
2023-02-02T21:19:43.061Z,4.00
2023-02-02T21:22:11.223Z,4.10
2023-02-02T21:24:38.515Z,4.00
2023-02-02T21:27:05.689Z,4.00
2023-02-02T21:29:33.350Z,4.00
2023-02-02T21:32:02.541Z,4.00
2023-02-02T21:34:30.968Z,4.00
2023-02-02T21:36:58.786Z,4.00
2023-02-02T21:39:35.297Z,4.00
2023-02-02T21:42:08.666Z,4.00
2023-02-02T21:44:37.791Z,4.00
2023-02-02T21:47:28.701Z,4.00
2023-02-02T21:49:59.002Z,4.00
2023-02-02T21:52:32.681Z,4.10
2023-02-02T21:55:00.415Z,4.10
2023-02-02T21:57:37.406Z,4.00
2023-02-02T22:00:34.417Z,4.10
2023-02-02T22:03:01.701Z,4.10
2023-02-02T22:05:35.739Z,4.10
2023-02-02T22:08:18.702Z,4.10
2023-02-02T22:10:47.215Z,4.10
2023-02-02T22:13:23.899Z,4.10
2023-02-02T22:15:53.001Z,4.10
2023-02-02T22:18:25.819Z,4.10
2023-02-02T22:20:54.440Z,4.10
2023-02-02T22:23:24.620Z,4.10
2023-02-02T22:25:57.694Z,4.10
2023-02-02T22:28:36.465Z,4.10
2023-02-02T22:31:04.923Z,4.10
2023-02-02T22:33:32.211Z,4.10
2023-02-02T22:35:59.410Z,4.20
2023-02-02T22:38:26.748Z,4.10
2023-02-02T22:40:54.043Z,4.10
2023-02-02T22:43:21.976Z,4.10
2023-02-02T22:45:49.402Z,4.10
2023-02-02T22:48:17.178Z,4.10
2023-02-02T22:50:44.334Z,4.10
2023-02-02T22:53:13.819Z,4.20
2023-02-02T22:55:41.467Z,4.20
2023-02-02T22:58:08.690Z,4.20
2023-02-02T23:00:37.566Z,4.30
2023-02-02T23:03:04.872Z,4.30
2023-02-02T23:05:32.199Z,4.30
2023-02-02T23:07:59.383Z,4.30
2023-02-02T23:10:28.111Z,4.30
2023-02-02T23:12:58.351Z,4.30
2023-02-02T23:15:26.008Z,4.30
2023-02-02T23:17:54.238Z,4.30
2023-02-02T23:20:21.836Z,4.30
2023-02-02T23:22:49.531Z,4.30
2023-02-02T23:25:18.682Z,4.30
2023-02-02T23:27:46.003Z,4.30
2023-02-02T23:30:14.448Z,4.30
2023-02-02T23:32:42.069Z,4.30
2023-02-02T23:35:10.989Z,4.30
2023-02-02T23:37:38.442Z,4.30
2023-02-02T23:40:06.164Z,4.30
2023-02-02T23:42:33.880Z,4.40
2023-02-02T23:45:01.103Z,4.40
2023-02-02T23:47:28.420Z,4.40
2023-02-02T23:49:55.997Z,4.40
2023-02-02T23:52:23.556Z,4.40
2023-02-02T23:54:52.697Z,4.40
2023-02-02T23:57:20.342Z,4.40
2023-02-02T23:59:47.736Z,4.40
